SVPL1: Red River at Shreveport Site 2

                                SHEF ID:       SVPL1     Red River at Shreveport Site 2
STATION TYPE:

PRECIP STAGE RIV-FLOW VOLTAGE
in ft cfs volt
Ccp-Rev Ccp-Rev Ccp-Rev Ccp-Rev
(America/Chicago)
06/19 00:00 0.00 16.75 28500 12.82
06/19 01:00 0.00 16.67 28020 12.80
06/19 02:00 0.00 16.75 28500 12.80
06/19 03:00 0.00 16.69 28140 12.79
06/19 04:00 0.00 16.78 28680 12.77
06/19 05:00 0.00 16.79 28740 12.77
06/19 06:00 0.00 16.81 28860 12.78
06/19 07:00 0.00 16.82 28920 13.00
06/19 08:00 0.00 16.75 28500 13.11
06/19 09:00 0.00 16.78 28680 13.20
06/19 10:00 0.00 16.70 28200 13.16
06/19 11:00 0.00 16.78 28680 12.96
06/19 12:00 0.00 16.80 28800 13.06
06/19 13:00 0.00 16.89 29340 13.13
06/19 14:00 0.00 16.89 29340 13.37
06/19 15:00 0.00 16.86 29160 13.05
06/19 16:00 0.00 16.91 29460 13.06
06/19 17:00 0.00 16.90 29400 13.03
06/19 18:00 0.00 16.90 29400 13.04
06/19 19:00 0.00 16.86 29160 12.90
06/19 20:00 0.00 16.84 29040 12.88
06/19 21:00 0.00 16.84 29040 12.88
06/19 22:00 0.00 16.92 29520 12.86
06/19 23:00 0.00 16.86 29160 12.85
Data processed at Mon 22Jun2026 03:24 GMT

NOTICE: If you are parsing this page

Please convert to using our Data API. Starting early 2026 we will be migrating to: https://water.usace.army.mil with modern pages rendered in JavaScript. When this migration completes you will no longer be able to scrape this page! CWMSDataAPI (CDA)

Timeseries IDs (TSIDs)

TSIDs used from left to right in the data table
SHRE.Precip-Inc.Total.1Hour.1Hour.Ccp-Rev
SHRE.Stage.Inst.1Hour.0.Ccp-Rev
SHRE.Flow.Inst.1Hour.0.Ccp-Rev
SHRE.Volt-Battery.Inst.1Hour.0.Ccp-Rev

                            

All information presented herein is the property of the government of the United States of America and may be revised or deleted at any time without prior notice. Dissemination of this information without the expressed written consent of the Public Affairs Office, Tulsa District U.S. Army Corps of Engineers is strictly prohibited. These data are gathered electronically and, as presented, have NOT undergone any form of quality control. These data are NOT guaranteed to be valid or correct.